SHT5Q EGAC-EGLL
Flight info
| Callsign | SHT5Q |
|---|---|
| Flight time | 0h 48m |
| Altitude | 33000 |
| Route | DCT DUFFY L10 RINGA Q39 ETIGA DCT INKOB Q39 NOMSU UQ4 WAL UY53 NUGRA NUGRA2H |
| Aircraft | A319/M-SDE3FGHIRWY/LB1 |
Departure
| Time | 2026-05-08 18:45 |
|---|---|
| Airport | George Best Belfast City Airport (EGAC) |
Arrival
| Time | 2026-05-08 19:34 |
|---|---|
| Airport | London Heathrow Airport (EGLL) |
| Time | Latitude | Longitude | Altitude | Speed | Heading |
|---|---|---|---|---|---|
| 2026-05-08 17:41 | 54.61461 | -5.87187 | 22 ft | 0 kts | 156° |
| 2026-05-08 18:39 | 54.61476 | -5.87199 | 24 ft | 4 kts | 155° |
| 2026-05-08 18:39 | 54.61496 | -5.87215 | 24 ft | 4 kts | 160° |
| 2026-05-08 18:40 | 54.61521 | -5.87223 | 23 ft | 4 kts | 189° |
| 2026-05-08 18:40 | 54.61543 | -5.87209 | 26 ft | 1 kts | 215° |
| 2026-05-08 18:40 | 54.61547 | -5.87205 | 26 ft | 0 kts | 215° |
| 2026-05-08 18:42 | 54.61539 | -5.87215 | 21 ft | 3 kts | 215° |
| 2026-05-08 18:42 | 54.61511 | -5.87248 | 22 ft | 6 kts | 214° |
| 2026-05-08 18:42 | 54.61466 | -5.87300 | 21 ft | 9 kts | 213° |
| 2026-05-08 18:42 | 54.61407 | -5.87367 | 21 ft | 11 kts | 213° |
| 2026-05-08 18:43 | 54.61348 | -5.87471 | 21 ft | 13 kts | 234° |
| 2026-05-08 18:43 | 54.61266 | -5.87578 | 18 ft | 17 kts | 206° |
| 2026-05-08 18:43 | 54.61165 | -5.87700 | 16 ft | 19 kts | 221° |
| 2026-05-08 18:43 | 54.61100 | -5.87791 | 19 ft | 6 kts | 214° |
| 2026-05-08 18:44 | 54.61081 | -5.87840 | 19 ft | 1 kts | 265° |
| 2026-05-08 18:44 | 54.61085 | -5.87874 | 18 ft | 5 kts | 281° |
| 2026-05-08 18:44 | 54.61102 | -5.87951 | 20 ft | 8 kts | 301° |
| 2026-05-08 18:44 | 54.61143 | -5.88027 | 18 ft | 9 kts | 340° |
| 2026-05-08 18:45 | 54.61205 | -5.87979 | 18 ft | 13 kts | 38° |
| 2026-05-08 18:45 | 54.61477 | -5.87645 | 12 ft | 91 kts | 34° |
| 2026-05-08 18:45 | 54.62182 | -5.86806 | 174 ft | 140 kts | 33° |
| 2026-05-08 18:45 | 54.63024 | -5.85834 | 760 ft | 154 kts | 31° |
| 2026-05-08 18:46 | 54.63916 | -5.84808 | 1543 ft | 156 kts | 31° |
| 2026-05-08 18:46 | 54.64843 | -5.83754 | 2084 ft | 166 kts | 34° |
| 2026-05-08 18:46 | 54.65535 | -5.81991 | 2371 ft | 199 kts | 72° |
| 2026-05-08 18:46 | 54.65444 | -5.79442 | 2778 ft | 233 kts | 108° |
| 2026-05-08 18:47 | 54.64448 | -5.77032 | 3330 ft | 262 kts | 137° |
| 2026-05-08 18:47 | 54.62990 | -5.75030 | 4236 ft | 271 kts | 141° |
| 2026-05-08 18:47 | 54.61501 | -5.73002 | 5313 ft | 273 kts | 141° |
| 2026-05-08 18:47 | 54.60016 | -5.70974 | 6443 ft | 272 kts | 142° |
| 2026-05-08 18:48 | 54.58552 | -5.68971 | 7438 ft | 273 kts | 143° |
| 2026-05-08 18:48 | 54.57038 | -5.66900 | 8391 ft | 277 kts | 143° |
| 2026-05-08 18:48 | 54.55515 | -5.64823 | 9334 ft | 280 kts | 143° |
| 2026-05-08 18:48 | 54.53975 | -5.62721 | 10229 ft | 284 kts | 144° |
| 2026-05-08 18:49 | 54.52385 | -5.60561 | 10615 ft | 306 kts | 144° |
| 2026-05-08 18:49 | 54.50645 | -5.58208 | 10931 ft | 327 kts | 144° |
| 2026-05-08 18:49 | 54.48830 | -5.55748 | 11567 ft | 335 kts | 144° |
| 2026-05-08 18:49 | 54.46989 | -5.53249 | 12321 ft | 340 kts | 144° |
| 2026-05-08 18:50 | 54.45121 | -5.50715 | 13095 ft | 344 kts | 144° |
| 2026-05-08 18:50 | 54.43235 | -5.48166 | 13851 ft | 347 kts | 144° |
| 2026-05-08 18:50 | 54.41318 | -5.45578 | 14520 ft | 351 kts | 144° |
| 2026-05-08 18:50 | 54.39388 | -5.42974 | 15189 ft | 355 kts | 145° |
| 2026-05-08 18:51 | 54.37439 | -5.40346 | 15853 ft | 358 kts | 144° |
| 2026-05-08 18:51 | 54.35471 | -5.37693 | 16540 ft | 361 kts | 145° |
| 2026-05-08 18:51 | 54.33510 | -5.35060 | 17195 ft | 364 kts | 145° |
| 2026-05-08 18:51 | 54.31505 | -5.32377 | 17847 ft | 367 kts | 146° |
| 2026-05-08 18:52 | 54.29483 | -5.29677 | 18518 ft | 370 kts | 146° |
| 2026-05-08 18:52 | 54.27524 | -5.26761 | 19078 ft | 378 kts | 138° |
| 2026-05-08 18:52 | 54.25800 | -5.23303 | 19650 ft | 383 kts | 133° |
| 2026-05-08 18:52 | 54.24105 | -5.19756 | 20222 ft | 387 kts | 134° |
| 2026-05-08 18:53 | 54.22390 | -5.16173 | 20792 ft | 390 kts | 134° |
| 2026-05-08 18:53 | 54.20657 | -5.12572 | 21339 ft | 394 kts | 134° |
| 2026-05-08 18:53 | 54.18906 | -5.08946 | 21883 ft | 397 kts | 134° |
| 2026-05-08 18:53 | 54.17140 | -5.05294 | 22404 ft | 401 kts | 134° |
| 2026-05-08 18:54 | 54.15358 | -5.01610 | 22917 ft | 404 kts | 134° |
| 2026-05-08 18:54 | 54.13558 | -4.97888 | 23397 ft | 408 kts | 134° |
| 2026-05-08 18:54 | 54.11742 | -4.94134 | 23853 ft | 411 kts | 134° |
| 2026-05-08 18:54 | 54.09916 | -4.90357 | 24258 ft | 415 kts | 135° |
| 2026-05-08 18:55 | 54.06207 | -4.82741 | 25048 ft | 421 kts | 135° |
| 2026-05-08 18:55 | 54.04328 | -4.78894 | 25441 ft | 424 kts | 135° |
| 2026-05-08 18:55 | 54.02493 | -4.75002 | 25826 ft | 428 kts | 133° |
| 2026-05-08 18:56 | 54.00683 | -4.70974 | 26180 ft | 432 kts | 132° |
| 2026-05-08 18:56 | 53.98880 | -4.66859 | 26565 ft | 436 kts | 132° |
| 2026-05-08 18:56 | 53.97070 | -4.62697 | 26941 ft | 439 kts | 132° |
| 2026-05-08 18:56 | 53.95245 | -4.58516 | 27316 ft | 442 kts | 132° |
| 2026-05-08 18:57 | 53.93396 | -4.54325 | 27687 ft | 445 kts | 133° |
| 2026-05-08 18:57 | 53.92158 | -4.51551 | 27930 ft | 447 kts | 133° |
| 2026-05-08 18:57 | 53.89625 | -4.45936 | 28397 ft | 450 kts | 133° |
| 2026-05-08 18:57 | 53.87709 | -4.41710 | 28760 ft | 453 kts | 133° |
| 2026-05-08 18:58 | 53.85807 | -4.37435 | 29115 ft | 457 kts | 132° |
| 2026-05-08 18:58 | 53.83958 | -4.33038 | 29459 ft | 461 kts | 130° |
| 2026-05-08 18:58 | 53.82139 | -4.28538 | 29792 ft | 464 kts | 130° |
| 2026-05-08 18:58 | 53.80331 | -4.23989 | 30114 ft | 467 kts | 129° |
| 2026-05-08 18:59 | 53.78512 | -4.19423 | 30393 ft | 470 kts | 130° |
| 2026-05-08 18:59 | 53.76671 | -4.14848 | 30645 ft | 472 kts | 130° |
| 2026-05-08 18:59 | 53.74802 | -4.10266 | 30900 ft | 475 kts | 130° |
| 2026-05-08 18:59 | 53.72908 | -4.05678 | 31156 ft | 477 kts | 130° |
| 2026-05-08 19:00 | 53.70994 | -4.01076 | 31463 ft | 478 kts | 130° |
| 2026-05-08 19:00 | 53.69082 | -3.96483 | 31832 ft | 478 kts | 130° |
| 2026-05-08 19:00 | 53.67176 | -3.91906 | 32163 ft | 478 kts | 130° |
| 2026-05-08 19:00 | 53.65268 | -3.87323 | 32553 ft | 477 kts | 130° |
| 2026-05-08 19:01 | 53.63360 | -3.82745 | 32931 ft | 477 kts | 130° |
| 2026-05-08 19:01 | 53.61449 | -3.78171 | 33094 ft | 477 kts | 130° |
| 2026-05-08 19:01 | 53.59559 | -3.73645 | 33122 ft | 469 kts | 130° |
| 2026-05-08 19:02 | 53.55816 | -3.64706 | 33115 ft | 466 kts | 130° |
| 2026-05-08 19:02 | 53.52067 | -3.55808 | 33115 ft | 467 kts | 130° |
| 2026-05-08 19:03 | 53.48326 | -3.46969 | 33105 ft | 467 kts | 130° |
| 2026-05-08 19:03 | 53.45270 | -3.37240 | 33105 ft | 475 kts | 117° |
| 2026-05-08 19:04 | 53.42700 | -3.27036 | 33099 ft | 474 kts | 117° |
| 2026-05-08 19:04 | 53.40090 | -3.16878 | 33093 ft | 473 kts | 119° |
| 2026-05-08 19:05 | 53.36630 | -3.07674 | 33083 ft | 464 kts | 132° |
| 2026-05-08 19:05 | 53.32753 | -2.99024 | 33088 ft | 465 kts | 131° |
| 2026-05-08 19:06 | 53.28889 | -2.90333 | 33091 ft | 466 kts | 131° |
| 2026-05-08 19:06 | 53.25013 | -2.81642 | 33094 ft | 466 kts | 131° |
| 2026-05-08 19:07 | 53.21132 | -2.72997 | 33058 ft | 466 kts | 131° |
| 2026-05-08 19:07 | 53.17235 | -2.64358 | 33069 ft | 465 kts | 131° |
| 2026-05-08 19:08 | 53.13343 | -2.55756 | 33077 ft | 465 kts | 131° |
| 2026-05-08 19:08 | 53.09630 | -2.46987 | 33068 ft | 467 kts | 128° |
| 2026-05-08 19:09 | 53.06054 | -2.38039 | 33069 ft | 468 kts | 127° |
| 2026-05-08 19:09 | 53.01947 | -2.29828 | 33062 ft | 458 kts | 144° |
| 2026-05-08 19:10 | 52.96834 | -2.23947 | 33050 ft | 451 kts | 153° |
| 2026-05-08 19:10 | 52.91557 | -2.18440 | 33058 ft | 451 kts | 153° |
| 2026-05-08 19:11 | 52.86261 | -2.12885 | 33070 ft | 451 kts | 153° |
| 2026-05-08 19:11 | 52.80942 | -2.07326 | 33097 ft | 458 kts | 153° |
| 2026-05-08 19:12 | 52.75506 | -2.01695 | 33079 ft | 463 kts | 153° |
| 2026-05-08 19:12 | 52.70032 | -1.96028 | 33090 ft | 466 kts | 152° |
| 2026-05-08 19:13 | 52.64573 | -1.90380 | 32776 ft | 456 kts | 152° |
| 2026-05-08 19:13 | 52.61895 | -1.87610 | 32222 ft | 454 kts | 152° |
| 2026-05-08 19:13 | 52.59222 | -1.84851 | 31599 ft | 453 kts | 152° |
| 2026-05-08 19:13 | 52.56564 | -1.82116 | 30838 ft | 448 kts | 152° |
| 2026-05-08 19:14 | 52.53935 | -1.79411 | 30048 ft | 441 kts | 152° |
| 2026-05-08 19:14 | 52.51387 | -1.76795 | 29166 ft | 434 kts | 152° |
| 2026-05-08 19:14 | 52.48844 | -1.74190 | 28299 ft | 426 kts | 152° |
| 2026-05-08 19:14 | 52.46350 | -1.71641 | 27474 ft | 419 kts | 152° |
| 2026-05-08 19:15 | 52.43890 | -1.69137 | 26656 ft | 412 kts | 152° |
| 2026-05-08 19:15 | 52.41475 | -1.66679 | 25862 ft | 406 kts | 152° |
| 2026-05-08 19:15 | 52.39092 | -1.64257 | 25131 ft | 402 kts | 151° |
| 2026-05-08 19:15 | 52.36729 | -1.61855 | 24684 ft | 398 kts | 151° |
| 2026-05-08 19:16 | 52.34391 | -1.59481 | 24242 ft | 394 kts | 151° |
| 2026-05-08 19:16 | 52.32069 | -1.57130 | 23808 ft | 390 kts | 151° |
| 2026-05-08 19:16 | 52.29767 | -1.54809 | 23335 ft | 387 kts | 151° |
| 2026-05-08 19:16 | 52.28255 | -1.53286 | 23009 ft | 385 kts | 151° |
| 2026-05-08 19:17 | 52.25988 | -1.51002 | 22518 ft | 381 kts | 151° |
| 2026-05-08 19:17 | 52.23741 | -1.48734 | 22028 ft | 378 kts | 151° |
| 2026-05-08 19:17 | 52.21544 | -1.46411 | 21508 ft | 376 kts | 145° |
| 2026-05-08 19:17 | 52.19547 | -1.43682 | 21014 ft | 374 kts | 142° |
| 2026-05-08 19:18 | 52.17580 | -1.40927 | 20528 ft | 371 kts | 142° |
| 2026-05-08 19:18 | 52.15627 | -1.38195 | 20047 ft | 367 kts | 141° |
| 2026-05-08 19:18 | 52.13696 | -1.35501 | 19571 ft | 364 kts | 142° |
| 2026-05-08 19:18 | 52.11779 | -1.32830 | 19096 ft | 360 kts | 141° |
| 2026-05-08 19:19 | 52.09888 | -1.30197 | 18627 ft | 357 kts | 141° |
| 2026-05-08 19:19 | 52.08009 | -1.27586 | 18123 ft | 354 kts | 141° |
| 2026-05-08 19:19 | 52.06142 | -1.24997 | 17562 ft | 351 kts | 141° |
| 2026-05-08 19:19 | 52.04287 | -1.22430 | 17006 ft | 349 kts | 142° |
| 2026-05-08 19:20 | 52.02444 | -1.19882 | 16447 ft | 346 kts | 141° |
| 2026-05-08 19:20 | 52.01234 | -1.18206 | 16099 ft | 345 kts | 141° |
| 2026-05-08 19:20 | 51.98801 | -1.14839 | 15380 ft | 342 kts | 141° |
| 2026-05-08 19:20 | 51.96996 | -1.12343 | 15095 ft | 341 kts | 141° |
| 2026-05-08 19:21 | 51.95193 | -1.09857 | 14607 ft | 339 kts | 141° |
| 2026-05-08 19:21 | 51.93402 | -1.07390 | 14214 ft | 334 kts | 141° |
| 2026-05-08 19:21 | 51.91668 | -1.05001 | 14089 ft | 321 kts | 141° |
| 2026-05-08 19:21 | 51.89997 | -1.02708 | 13970 ft | 309 kts | 142° |
| 2026-05-08 19:22 | 51.88385 | -1.00496 | 13843 ft | 299 kts | 142° |
| 2026-05-08 19:22 | 51.86847 | -0.98382 | 13526 ft | 291 kts | 142° |
| 2026-05-08 19:22 | 51.85374 | -0.96042 | 12765 ft | 296 kts | 128° |
| 2026-05-08 19:22 | 51.84368 | -0.93197 | 12144 ft | 296 kts | 117° |
| 2026-05-08 19:23 | 51.83471 | -0.90208 | 11531 ft | 294 kts | 117° |
| 2026-05-08 19:23 | 51.82569 | -0.87251 | 10960 ft | 292 kts | 118° |
| 2026-05-08 19:23 | 51.81667 | -0.84312 | 10395 ft | 290 kts | 118° |
| 2026-05-08 19:23 | 51.80772 | -0.81402 | 9838 ft | 288 kts | 118° |
| 2026-05-08 19:24 | 51.79882 | -0.78517 | 9245 ft | 285 kts | 118° |
| 2026-05-08 19:24 | 51.78997 | -0.75647 | 8836 ft | 285 kts | 117° |
| 2026-05-08 19:24 | 51.78122 | -0.72799 | 8508 ft | 282 kts | 118° |
| 2026-05-08 19:24 | 51.77251 | -0.69972 | 8193 ft | 280 kts | 118° |
| 2026-05-08 19:25 | 51.76385 | -0.67171 | 8097 ft | 278 kts | 118° |
| 2026-05-08 19:25 | 51.75520 | -0.64372 | 8105 ft | 279 kts | 118° |
| 2026-05-08 19:25 | 51.74652 | -0.61565 | 8103 ft | 279 kts | 117° |
| 2026-05-08 19:25 | 51.73780 | -0.58766 | 8108 ft | 279 kts | 119° |
| 2026-05-08 19:26 | 51.72571 | -0.56360 | 8122 ft | 276 kts | 143° |
| 2026-05-08 19:26 | 51.70865 | -0.55010 | 8124 ft | 274 kts | 168° |
| 2026-05-08 19:26 | 51.68977 | -0.54799 | 8086 ft | 273 kts | 186° |
| 2026-05-08 19:26 | 51.67202 | -0.55785 | 8032 ft | 271 kts | 213° |
| 2026-05-08 19:27 | 51.65838 | -0.57859 | 7678 ft | 271 kts | 229° |
| 2026-05-08 19:27 | 51.64647 | -0.60213 | 7316 ft | 271 kts | 231° |
| 2026-05-08 19:27 | 51.63496 | -0.62565 | 6970 ft | 271 kts | 231° |
| 2026-05-08 19:27 | 51.62338 | -0.64955 | 6610 ft | 271 kts | 231° |
| 2026-05-08 19:28 | 51.61184 | -0.67344 | 6243 ft | 271 kts | 231° |
| 2026-05-08 19:28 | 51.60027 | -0.69738 | 5873 ft | 270 kts | 231° |
| 2026-05-08 19:28 | 51.58884 | -0.72118 | 5523 ft | 269 kts | 231° |
| 2026-05-08 19:28 | 51.57741 | -0.74502 | 5182 ft | 268 kts | 231° |
| 2026-05-08 19:29 | 51.56490 | -0.76689 | 4848 ft | 265 kts | 217° |
| 2026-05-08 19:29 | 51.54839 | -0.77857 | 4525 ft | 259 kts | 187° |
| 2026-05-08 19:29 | 51.53080 | -0.78101 | 4394 ft | 248 kts | 181° |
| 2026-05-08 19:29 | 51.51387 | -0.78168 | 4260 ft | 238 kts | 172° |
| 2026-05-08 19:30 | 51.49881 | -0.77288 | 4109 ft | 226 kts | 147° |
| 2026-05-08 19:30 | 51.48698 | -0.75675 | 3717 ft | 225 kts | 129° |
| 2026-05-08 19:30 | 51.47904 | -0.73481 | 3194 ft | 230 kts | 109° |
| 2026-05-08 19:30 | 51.47635 | -0.70985 | 2848 ft | 224 kts | 91° |
| 2026-05-08 19:31 | 51.47651 | -0.68565 | 2557 ft | 211 kts | 90° |
| 2026-05-08 19:31 | 51.47664 | -0.66291 | 2299 ft | 196 kts | 90° |
| 2026-05-08 19:31 | 51.47675 | -0.64187 | 2037 ft | 186 kts | 90° |
| 2026-05-08 19:31 | 51.47685 | -0.62151 | 1786 ft | 179 kts | 90° |
| 2026-05-08 19:32 | 51.47695 | -0.60191 | 1550 ft | 173 kts | 90° |
| 2026-05-08 19:32 | 51.47705 | -0.58288 | 1317 ft | 166 kts | 90° |
| 2026-05-08 19:32 | 51.47713 | -0.56514 | 1111 ft | 149 kts | 90° |
| 2026-05-08 19:32 | 51.47720 | -0.54945 | 916 ft | 134 kts | 90° |
| 2026-05-08 19:33 | 51.47733 | -0.53485 | 708 ft | 128 kts | 88° |
| 2026-05-08 19:33 | 51.47743 | -0.52077 | 488 ft | 124 kts | 90° |
| 2026-05-08 19:33 | 51.47746 | -0.50690 | 327 ft | 123 kts | 90° |
| 2026-05-08 19:33 | 51.47755 | -0.49323 | 199 ft | 123 kts | 90° |
| 2026-05-08 19:34 | 51.47753 | -0.48047 | 87 ft | 103 kts | 89° |
| 2026-05-08 19:34 | 51.47756 | -0.47159 | 89 ft | 55 kts | 90° |
| 2026-05-08 19:34 | 51.47756 | -0.46725 | 90 ft | 38 kts | 90° |
| 2026-05-08 19:34 | 51.47760 | -0.46269 | 87 ft | 41 kts | 91° |
| 2026-05-08 19:35 | 51.47628 | -0.46055 | 88 ft | 21 kts | 148° |
| 2026-05-08 19:35 | 51.47567 | -0.46074 | 89 ft | 8 kts | 200° |
| 2026-05-08 19:35 | 51.47519 | -0.46126 | 86 ft | 9 kts | 242° |
| 2026-05-08 19:35 | 51.47518 | -0.46241 | 86 ft | 11 kts | 269° |
| 2026-05-08 19:36 | 51.47515 | -0.46380 | 86 ft | 13 kts | 268° |
| 2026-05-08 19:36 | 51.47517 | -0.46542 | 86 ft | 16 kts | 269° |
| 2026-05-08 19:36 | 51.47505 | -0.46725 | 88 ft | 17 kts | 251° |
| 2026-05-08 19:36 | 51.47495 | -0.46928 | 86 ft | 19 kts | 269° |
| 2026-05-08 19:37 | 51.47492 | -0.47156 | 86 ft | 21 kts | 271° |
| 2026-05-08 19:37 | 51.47455 | -0.47345 | 86 ft | 18 kts | 210° |
| 2026-05-08 19:37 | 51.47332 | -0.47352 | 86 ft | 19 kts | 179° |
| 2026-05-08 19:37 | 51.47214 | -0.47335 | 90 ft | 12 kts | 130° |
| 2026-05-08 19:38 | 51.47207 | -0.47230 | 91 ft | 7 kts | 91° |
| 2026-05-08 19:38 | 51.47208 | -0.47194 | 89 ft | 2 kts | 89° |
| 2026-05-08 19:38 | 51.47208 | -0.47186 | 88 ft | 0 kts | 89° |